Time;durP1;ratioP1;P1;durP2;ratioP2;P2;SDS_P1;SDS_P2;PMS_P1;PMS_P2;Temp;Humidity;BMP_temperature;BMP_pressure;BME280_temperature;BME280_humidity;BME280_pressure;Samples;Min_cycle;Max_cycle;Signal;HPM_P1;HPM_P2
2023/04/19 00:01:13;;;;;;;;;24.50;22.50;;;;;14.02;100.00;101736.69;5035169;28;62680;-71
2023/04/19 00:03:39;;;;;;;;;27.50;25.00;;;;;14.01;100.00;101726.91;5035821;28;47332;-71
2023/04/19 00:06:07;;;;;;;;;27.50;19.75;;;;;14.01;100.00;101732.22;5028905;28;45358;-71
2023/04/19 00:08:32;;;;;;;;;22.00;20.50;;;;;13.98;100.00;101729.56;5032496;28;45457;-71
2023/04/19 00:10:57;;;;;;;;;21.75;17.75;;;;;13.97;100.00;101727.78;5036812;28;45666;-72
2023/04/19 00:13:23;;;;;;;;;22.75;20.75;;;;;13.96;100.00;101728.66;5036422;28;66229;-71
2023/04/19 00:15:48;;;;;;;;;22.50;21.25;;;;;13.95;100.00;101738.34;5036142;28;66748;-72
2023/04/19 00:18:13;;;;;;;;;16.25;15.50;;;;;13.94;100.00;101741.00;5036720;28;45250;-71
2023/04/19 00:20:39;;;;;;;;;21.00;18.00;;;;;13.92;100.00;101732.13;5036098;28;53554;-71
2023/04/19 00:23:04;;;;;;;;;24.00;21.00;;;;;13.90;100.00;101734.75;5035307;28;69450;-71
2023/04/19 00:25:30;;;;;;;;;28.50;21.25;;;;;13.91;100.00;101736.56;5036733;28;45572;-71
2023/04/19 00:27:56;;;;;;;;;20.75;18.50;;;;;13.88;100.00;101741.81;5036910;28;45437;-71
2023/04/19 00:30:21;;;;;;;;;20.25;17.50;;;;;13.87;100.00;101740.03;5036022;28;45294;-72
2023/04/19 00:32:47;;;;;;;;;20.75;18.75;;;;;13.81;100.00;101738.22;5036202;28;46337;-71
2023/04/19 00:35:13;;;;;;;;;22.50;18.50;;;;;13.81;100.00;101737.31;5036213;28;67774;-71
2023/04/19 00:37:38;;;;;;;;;16.50;15.00;;;;;13.78;100.00;101739.94;5036621;28;45337;-71
2023/04/19 00:40:04;;;;;;;;;20.75;18.00;;;;;13.75;100.00;101737.25;5036026;28;48483;-71
2023/04/19 00:42:30;;;;;;;;;22.50;19.50;;;;;13.73;100.00;101738.97;5036122;28;46733;-71
2023/04/19 00:44:55;;;;;;;;;15.25;15.25;;;;;13.70;100.00;101734.53;5036717;28;51495;-71
2023/04/19 00:47:20;;;;;;;;;21.00;18.50;;;;;13.70;100.00;101736.31;5035418;28;57018;-72
2023/04/19 00:49:46;;;;;;;;;21.25;21.25;;;;;13.68;100.00;101738.03;5035616;28;59079;-71
2023/04/19 00:52:11;;;;;;;;;18.50;16.25;;;;;13.65;100.00;101733.59;5035062;28;68783;-71
2023/04/19 00:54:37;;;;;;;;;19.50;17.75;;;;;13.66;100.00;101740.66;5036424;28;45340;-72
2023/04/19 00:57:03;;;;;;;;;19.75;16.50;;;;;13.66;100.00;101738.00;5036113;28;45502;-71
2023/04/19 00:59:29;;;;;;;;;17.75;16.00;;;;;13.66;100.00;101742.44;5036795;28;45270;-71
2023/04/19 01:01:55;;;;;;;;;23.50;20.50;;;;;13.65;100.00;101736.25;5035577;28;49426;-71
2023/04/19 01:04:21;;;;;;;;;24.75;19.50;;;;;13.62;100.00;101737.06;5035989;28;48421;-71
2023/04/19 01:06:47;;;;;;;;;21.75;17.50;;;;;13.60;100.00;101724.66;5036606;28;45337;-71
2023/04/19 01:09:12;;;;;;;;;20.00;16.75;;;;;13.60;100.00;101730.88;5036311;28;45562;-71
2023/04/19 01:11:38;;;;;;;;;14.75;13.00;;;;;13.60;100.00;101737.94;5035709;28;45353;-71
2023/04/19 01:14:03;;;;;;;;;24.50;20.00;;;;;13.56;100.00;101731.69;5035469;28;53680;-71
2023/04/19 01:16:28;;;;;;;;;19.25;16.50;;;;;13.55;100.00;101732.56;5035033;28;62460;-73
2023/04/19 01:18:54;;;;;;;;;18.25;14.00;;;;;13.55;100.00;101723.72;5036300;28;57538;-71
2023/04/19 01:21:21;;;;;;;;;18.25;13.50;;;;;13.52;100.00;101731.63;5035459;28;47251;-71
2023/04/19 01:23:46;;;;;;;;;21.50;16.25;;;;;13.51;100.00;101730.75;5035028;28;45439;-72
2023/04/19 01:26:12;;;;;;;;;17.00;16.25;;;;;13.48;100.00;101725.41;5035220;28;64900;-70
2023/04/19 01:28:37;;;;;;;;;19.25;14.50;;;;;13.48;100.00;101730.72;5040443;28;61500;-73
2023/04/19 01:31:02;;;;;;;;;19.00;15.25;;;;;13.46;100.00;101726.25;5035707;28;46472;-71
2023/04/19 01:33:28;;;;;;;;;21.00;16.50;;;;;13.44;100.00;101736.84;5035557;28;45204;-72
2023/04/19 01:35:53;;;;;;;;;14.75;14.00;;;;;13.42;100.00;101719.09;5034110;28;47756;-71
2023/04/19 01:38:18;;;;;;;;;18.50;16.25;;;;;13.41;100.00;101728.81;5034754;28;55766;-71
2023/04/19 01:40:44;;;;;;;;;19.25;15.00;;;;;13.36;100.00;101728.75;5035186;28;71049;-72
2023/04/19 01:43:15;;;;;;;;;16.75;14.00;;;;;13.36;100.00;101726.09;5040015;28;45724;-71
2023/04/19 01:45:41;;;;;;;;;16.50;15.00;;;;;13.35;100.00;101729.63;5038826;28;45934;-71
2023/04/19 01:48:06;;;;;;;;;19.50;17.25;;;;;13.31;100.00;101725.16;5038606;28;58134;-71
2023/04/19 01:50:31;;;;;;;;;15.75;14.50;;;;;13.29;100.00;101718.06;5017842;28;63028;-71
2023/04/19 01:52:57;;;;;;;;;18.25;14.50;;;;;13.29;100.00;101718.94;5038597;28;63230;-72
2023/04/19 01:55:23;;;;;;;;;23.25;16.75;;;;;13.28;100.00;101718.94;5039226;28;45427;-71
2023/04/19 01:57:48;;;;;;;;;19.25;17.25;;;;;13.27;100.00;101722.47;5038831;28;59243;-71
2023/04/19 02:00:14;;;;;;;;;16.50;15.25;;;;;13.23;100.00;101721.50;5038674;28;46002;-72
2023/04/19 02:02:40;;;;;;;;;19.25;18.00;;;;;13.23;100.00;101717.97;5020837;28;45217;-71
2023/04/19 02:05:06;;;;;;;;;16.00;14.75;;;;;13.21;100.00;101719.66;5039278;28;45515;-71
2023/04/19 02:07:31;;;;;;;;;20.00;16.25;;;;;13.19;100.00;101716.09;5038662;28;45471;-71
2023/04/19 02:09:58;;;;;;;;;17.00;13.75;;;;;13.19;100.00;101721.41;5038131;28;68882;-70
2023/04/19 02:12:27;;;;;;;;;14.25;13.25;;;;;13.19;100.00;101718.75;5038895;28;45452;-71
2023/04/19 02:14:52;;;;;;;;;20.75;18.25;;;;;13.17;100.00;101715.19;5040422;28;45230;-71
2023/04/19 02:17:18;;;;;;;;;17.50;13.25;;;;;13.16;100.00;101722.28;5038853;28;45614;-72
2023/04/19 02:19:43;;;;;;;;;15.25;13.25;;;;;13.11;100.00;101713.34;5037416;28;69005;-72
2023/04/19 02:22:08;;;;;;;;;22.75;18.50;;;;;13.12;100.00;101709.81;5038275;28;67035;-72
2023/04/19 02:24:34;;;;;;;;;20.75;16.50;;;;;13.13;100.00;101710.72;5037974;28;65510;-71
2023/04/19 02:27:00;;;;;;;;;21.75;17.50;;;;;13.13;100.00;101714.25;5038454;28;45750;-71
2023/04/19 02:29:26;;;;;;;;;22.75;14.25;;;;;13.14;100.00;101707.19;5038585;28;45847;-71
2023/04/19 02:31:52;;;;;;;;;22.50;17.25;;;;;13.14;100.00;101710.72;5038535;28;46353;-71
2023/04/19 02:34:17;;;;;;;;;15.75;15.00;;;;;13.15;100.00;101720.47;5038616;28;45335;-72
2023/04/19 02:36:42;;;;;;;;;16.75;15.00;;;;;13.14;100.00;101720.44;5020564;28;45486;-71
2023/04/19 02:39:08;;;;;;;;;15.25;14.25;;;;;13.10;100.00;101712.47;5036697;28;67394;-71
2023/04/19 02:41:33;;;;;;;;;15.25;14.00;;;;;13.07;100.00;101709.75;5039078;28;60914;-71
2023/04/19 02:43:58;;;;;;;;;14.25;14.25;;;;;13.02;100.00;101703.50;5037631;28;62821;-72
2023/04/19 02:46:24;;;;;;;;;20.25;13.50;;;;;13.02;100.00;101706.16;5037526;28;61090;-71
2023/04/19 02:48:49;;;;;;;;;16.75;12.00;;;;;13.02;100.00;101711.44;5037130;28;46876;-71
2023/04/19 02:51:15;;;;;;;;;20.00;14.25;;;;;13.01;100.00;101712.31;5038122;28;45315;-71
2023/04/19 02:53:41;;;;;;;;;17.25;15.00;;;;;13.03;100.00;101717.63;5037486;28;45506;-71
2023/04/19 02:56:07;;;;;;;;;20.25;18.00;;;;;13.01;100.00;101722.94;5037817;28;59134;-71
2023/04/19 02:58:32;;;;;;;;;17.50;13.50;;;;;12.99;100.00;101719.34;5038161;28;45737;-71
2023/04/19 03:00:57;;;;;;;;;15.75;14.25;;;;;12.96;100.00;101718.44;5036812;28;63260;-70
2023/04/19 03:03:23;;;;;;;;;17.50;14.00;;;;;12.93;100.00;101713.06;5037462;28;64292;-72
2023/04/19 03:05:48;;;;;;;;;16.75;15.50;;;;;12.89;100.00;101722.75;5031506;28;62571;-71
2023/04/19 03:08:13;;;;;;;;;18.75;15.00;;;;;12.87;100.00;101718.28;5032141;28;67071;-72
2023/04/19 03:10:39;;;;;;;;;18.50;17.00;;;;;12.83;100.00;101712.03;5037655;28;45199;-72
2023/04/19 03:13:04;;;;;;;;;15.75;15.75;;;;;12.83;100.00;101727.91;5038299;28;45374;-71
2023/04/19 03:15:29;;;;;;;;;16.00;13.75;;;;;12.83;100.00;101731.47;5037447;28;45455;-71
2023/04/19 03:17:55;;;;;;;;;16.25;15.25;;;;;12.81;100.00;101724.38;5036259;28;69347;-71
2023/04/19 03:20:20;;;;;;;;;17.50;13.50;;;;;12.80;100.00;101725.25;5035984;28;69263;-71
2023/04/19 03:22:46;;;;;;;;;17.00;14.25;;;;;12.78;100.00;101719.00;5037243;28;60256;-71
2023/04/19 03:25:12;;;;;;;;;20.00;16.75;;;;;12.74;100.00;101715.44;5037920;28;45293;-71
2023/04/19 03:27:37;;;;;;;;;15.75;15.75;;;;;12.74;100.00;101726.03;5037362;28;46061;-71
2023/04/19 03:30:03;;;;;;;;;17.00;13.50;;;;;12.74;100.00;101718.09;5037519;28;45337;-71
2023/04/19 03:32:30;;;;;;;;;18.75;17.75;;;;;12.73;100.00;101721.59;5037345;28;45257;-72
2023/04/19 03:34:55;;;;;;;;;16.00;14.25;;;;;12.71;100.00;101723.31;5037889;28;45443;-71
2023/04/19 03:37:21;;;;;;;;;17.25;13.75;;;;;12.68;100.00;101723.28;5035426;28;69527;-72
2023/04/19 03:39:46;;;;;;;;;21.25;15.75;;;;;12.67;100.00;101718.81;5036569;28;55523;-71
2023/04/19 03:42:11;;;;;;;;;14.25;14.25;;;;;12.64;100.00;101721.44;5037740;28;45209;-71
2023/04/19 03:44:37;;;;;;;;;19.00;15.50;;;;;12.62;100.00;101727.56;5036603;28;59853;-71
2023/04/19 03:47:02;;;;;;;;;13.50;12.00;;;;;12.62;100.00;101723.16;5036703;28;47581;-71
2023/04/19 03:49:27;;;;;;;;;17.25;16.00;;;;;12.61;100.00;101716.09;5035337;28;56371;-71
2023/04/19 03:51:53;;;;;;;;;14.50;14.50;;;;;12.61;100.00;101718.72;5033572;28;45376;-71
2023/04/19 03:54:18;;;;;;;;;19.50;14.50;;;;;12.60;100.00;101719.59;5041254;28;45446;-71
2023/04/19 03:56:43;;;;;;;;;17.00;16.00;;;;;12.59;100.00;101720.47;5036538;28;45715;-72
2023/04/19 03:59:09;;;;;;;;;25.25;19.75;;;;;12.55;100.00;101722.16;5036158;28;45344;-72
2023/04/19 04:01:40;;;;;;;;;17.75;16.25;;;;;12.54;100.00;101715.09;5036900;28;45417;-72
2023/04/19 04:04:06;;;;;;;;;20.50;17.00;;;;;12.52;100.00;101711.53;5036476;28;45142;-71
2023/04/19 04:06:31;;;;;;;;;16.25;14.25;;;;;12.54;100.00;101714.19;5036284;28;46486;-72
2023/04/19 04:08:56;;;;;;;;;15.25;13.50;;;;;12.50;100.00;101705.31;5036010;28;68968;-71
2023/04/19 04:11:22;;;;;;;;;18.50;14.50;;;;;12.51;100.00;101720.31;5036644;28;62906;-73
2023/04/19 04:13:48;;;;;;;;;20.25;17.50;;;;;12.46;100.00;101700.81;5035756;28;45436;-72
2023/04/19 04:16:13;;;;;;;;;18.00;15.50;;;;;12.47;100.00;101707.91;5036437;28;46071;-71
2023/04/19 04:18:39;;;;;;;;;18.25;17.50;;;;;12.47;100.00;101710.56;5037079;28;45431;-71
2023/04/19 04:21:04;;;;;;;;;17.50;15.50;;;;;12.45;100.00;101708.75;5031001;28;45559;-72
2023/04/19 04:23:29;;;;;;;;;17.00;16.50;;;;;12.46;100.00;101718.47;5036419;28;45378;-71
2023/04/19 04:25:58;;;;;;;;;16.25;16.25;;;;;12.43;100.00;101707.84;5035861;28;55460;-71
2023/04/19 04:28:23;;;;;;;;;20.25;16.25;;;;;12.45;100.00;101708.75;5019050;28;45387;-71
2023/04/19 04:30:50;;;;;;;;;18.00;14.00;;;;;12.44;100.00;101715.78;5032316;28;45471;-71
2023/04/19 04:33:16;;;;;;;;;17.00;14.25;;;;;12.44;100.00;101721.09;5037078;28;45263;-72
2023/04/19 04:35:42;;;;;;;;;18.00;17.00;;;;;12.44;100.00;101718.44;5036893;28;46030;-71
2023/04/19 04:38:08;;;;;;;;;16.50;15.00;;;;;12.41;100.00;101717.50;5035769;28;45558;-71
2023/04/19 04:40:34;;;;;;;;;18.25;15.00;;;;;12.39;100.00;101717.47;5036944;28;45472;-71
2023/04/19 04:42:59;;;;;;;;;21.00;17.75;;;;;12.40;100.00;101713.94;5036263;28;45479;-72
2023/04/19 04:45:25;;;;;;;;;20.00;18.25;;;;;12.39;100.00;101713.94;5036093;28;47229;-72
2023/04/19 04:47:50;;;;;;;;;17.75;14.25;;;;;12.39;100.00;101717.47;5036646;28;45526;-72
2023/04/19 04:50:16;;;;;;;;;18.75;15.50;;;;;12.38;100.00;101717.44;5035493;28;45258;-73
2023/04/19 04:52:41;;;;;;;;;19.50;17.25;;;;;12.38;100.00;101723.63;5036805;28;45358;-72
2023/04/19 04:55:08;;;;;;;;;15.75;15.00;;;;;12.38;100.00;101717.44;5035382;28;67114;-71
2023/04/19 04:57:33;;;;;;;;;17.50;15.00;;;;;12.37;100.00;101719.22;5036715;28;45424;-72
2023/04/19 04:59:58;;;;;;;;;13.25;13.25;;;;;12.38;100.00;101717.44;5036070;28;45405;-72
2023/04/19 05:02:24;;;;;;;;;23.75;17.25;;;;;12.41;100.00;101717.50;5035733;28;45849;-72
2023/04/19 05:04:49;;;;;;;;;18.75;16.00;;;;;12.42;100.00;101727.25;5035741;28;46421;-72
2023/04/19 05:07:15;;;;;;;;;15.25;15.25;;;;;12.40;100.00;101724.53;5035627;28;45236;-72
2023/04/19 05:09:40;;;;;;;;;18.00;16.50;;;;;12.38;100.00;101725.41;5034078;28;62496;-75
2023/04/19 05:12:05;;;;;;;;;17.25;15.75;;;;;12.36;100.00;101732.41;5035820;28;46503;-72
2023/04/19 05:14:31;;;;;;;;;13.50;12.75;;;;;12.38;100.00;101730.69;5034672;28;51290;-72
2023/04/19 05:16:56;;;;;;;;;17.00;15.75;;;;;12.39;100.00;101741.31;5034373;28;45483;-71
2023/04/19 05:19:21;;;;;;;;;16.25;14.75;;;;;12.41;100.00;101738.69;5035412;28;61232;-72
2023/04/19 05:21:47;;;;;;;;;14.25;13.00;;;;;12.40;100.00;101743.09;5035028;28;61014;-72
2023/04/19 05:24:12;;;;;;;;;19.50;17.25;;;;;12.39;100.00;101738.66;5033785;28;57231;-72
2023/04/19 05:26:38;;;;;;;;;20.50;18.25;;;;;12.38;100.00;101736.88;5014997;28;61806;-72
2023/04/19 05:29:03;;;;;;;;;21.25;17.25;;;;;12.39;100.00;101737.78;5015345;28;45429;-73
2023/04/19 05:31:28;;;;;;;;;19.25;18.00;;;;;12.41;100.00;101739.59;5004284;28;57553;-72
2023/04/19 05:33:54;;;;;;;;;18.00;17.00;;;;;12.40;100.00;101740.44;5007476;28;45754;-73
2023/04/19 05:36:19;;;;;;;;;19.50;13.50;;;;;12.41;100.00;101742.25;5014798;28;56169;-72
2023/04/19 05:38:44;;;;;;;;;18.00;13.75;;;;;12.43;100.00;101752.88;5019138;28;65008;-72
2023/04/19 05:41:10;;;;;;;;;23.75;18.50;;;;;12.40;100.00;101742.19;5016031;28;45297;-74
2023/04/19 05:43:35;;;;;;;;;22.75;16.25;;;;;12.43;100.00;101759.06;5012008;28;45600;-72
2023/04/19 05:46:01;;;;;;;;;21.00;17.75;;;;;12.44;100.00;101752.00;5007491;28;66335;-74
2023/04/19 05:48:26;;;;;;;;;20.25;18.00;;;;;12.45;100.00;101759.97;5014010;28;63764;-72
2023/04/19 05:50:53;;;;;;;;;22.50;19.00;;;;;12.46;100.00;101752.91;5011881;28;45396;-72
2023/04/19 05:53:19;;;;;;;;;21.50;19.00;;;;;12.45;100.00;101753.78;5015243;28;45580;-73
2023/04/19 05:55:46;;;;;;;;;20.75;17.50;;;;;12.46;100.00;101752.91;5014174;28;45412;-72
2023/04/19 05:58:12;;;;;;;;;25.50;19.00;;;;;12.46;100.00;101751.13;5014657;28;45495;-72
2023/04/19 06:00:37;;;;;;;;;18.00;14.50;;;;;12.50;100.00;101755.63;5011847;28;45517;-71
2023/04/19 06:03:03;;;;;;;;;22.50;18.50;;;;;12.52;100.00;101763.63;5010525;28;66273;-72
2023/04/19 06:05:28;;;;;;;;;21.25;17.25;;;;;12.55;100.00;101766.31;5010209;28;45366;-72
2023/04/19 06:07:55;;;;;;;;;21.75;18.75;;;;;12.55;100.00;101761.91;5007834;28;62215;-72
2023/04/19 06:10:21;;;;;;;;;24.75;20.50;;;;;12.57;100.00;101764.59;5005022;28;45678;-72
2023/04/19 06:12:46;;;;;;;;;22.50;18.00;;;;;12.59;100.00;101762.88;5007450;28;47489;-74
2023/04/19 06:15:12;;;;;;;;;23.25;18.50;;;;;12.63;100.00;101761.19;5013381;28;45517;-72
2023/04/19 06:17:37;;;;;;;;;20.75;19.25;;;;;12.65;100.00;101767.38;5015033;28;45646;-72
2023/04/19 06:20:05;;;;;;;;;25.75;21.50;;;;;12.68;100.00;101770.09;5010587;28;50533;-73
2023/04/19 06:22:30;;;;;;;;;20.75;17.25;;;;;12.70;100.00;101774.53;5007014;28;45581;-73
2023/04/19 06:24:56;;;;;;;;;23.25;19.75;;;;;12.70;100.00;101758.63;5005547;28;58970;-74
2023/04/19 06:27:21;;;;;;;;;19.50;16.00;;;;;12.75;100.00;101769.31;5011760;28;45471;-72
2023/04/19 06:29:46;;;;;;;;;18.25;14.50;;;;;12.79;100.00;101765.88;5013184;28;60520;-72
2023/04/19 06:32:12;;;;;;;;;22.75;21.75;;;;;12.83;100.00;101776.53;5014019;28;67445;-72
2023/04/19 06:34:37;;;;;;;;;17.00;16.25;;;;;12.88;100.00;101783.66;5014404;28;45515;-75
2023/04/19 06:37:03;;;;;;;;;23.00;18.25;;;;;12.91;100.00;101784.63;5014204;28;52549;-72
2023/04/19 06:39:28;;;;;;;;;23.50;20.25;;;;;12.94;100.00;101778.47;5011253;28;45564;-74
2023/04/19 06:41:53;;;;;;;;;14.75;13.50;;;;;12.98;100.00;101777.66;5016910;28;64680;-75
2023/04/19 06:44:19;;;;;;;;;20.75;19.00;;;;;13.02;100.00;101784.78;5010425;28;45473;-72
2023/04/19 06:46:44;;;;;;;;;22.25;18.50;;;;;13.02;100.00;101772.44;5014679;28;45785;-72
2023/04/19 06:49:10;;;;;;;;;23.75;19.25;;;;;13.05;100.00;101777.78;5009890;28;45528;-72
2023/04/19 06:51:37;;;;;;;;;22.50;18.25;;;;;13.09;100.00;101786.66;5008356;28;65128;-72
2023/04/19 06:54:03;;;;;;;;;25.25;19.75;;;;;13.13;100.00;101784.97;5008874;28;45325;-78
2023/04/19 06:56:46;;;;;;;;;21.25;17.75;;;;;13.17;100.00;101784.16;5012626;28;59205;-80
2023/04/19 06:59:13;;;;;;;;;20.50;19.75;;;;;13.23;100.00;101776.31;4999633;28;45413;-77
2023/04/19 07:01:39;;;;;;;;;22.25;18.50;;;;;13.26;100.00;101779.91;5000303;28;46806;-79
2023/04/19 07:04:06;;;;;;;;;26.25;22.25;;;;;13.29;100.00;101779.06;5013815;28;45404;-79
2023/04/19 07:06:31;;;;;;;;;24.25;20.00;;;;;13.33;100.00;101775.59;4996247;28;45533;-77
2023/04/19 07:08:57;;;;;;;;;19.00;16.75;;;;;13.38;100.00;101780.97;4992145;28;45548;-76
2023/04/19 07:11:22;;;;;;;;;20.00;19.25;;;;;13.42;100.00;101774.81;5013599;28;59878;-76
2023/04/19 07:13:49;;;;;;;;;20.50;17.75;;;;;13.46;100.00;101772.22;5009945;28;66418;-76
2023/04/19 07:16:14;;;;;;;;;29.00;23.50;;;;;13.50;100.00;101763.44;5014713;28;45635;-76
2023/04/19 07:18:40;;;;;;;;;22.25;20.00;;;;;13.54;100.00;101772.34;5016295;28;53171;-75
2023/04/19 07:21:05;;;;;;;;;24.75;22.75;;;;;13.56;100.00;101779.44;5005421;28;46648;-76
2023/04/19 07:23:30;;;;;;;;;20.00;18.25;;;;;13.60;100.00;101781.28;5014280;28;45435;-76
2023/04/19 07:25:56;;;;;;;;;25.00;18.25;;;;;13.66;100.00;101782.25;5026426;28;54679;-77
2023/04/19 07:28:21;;;;;;;;;22.75;20.75;;;;;13.68;100.00;101785.78;5030401;28;45443;-76
2023/04/19 07:30:46;;;;;;;;;22.75;18.25;;;;;13.73;100.00;101784.09;5035118;28;47511;-77
2023/04/19 07:33:12;;;;;;;;;22.00;19.50;;;;;13.77;100.00;101780.63;5035710;28;65955;-76
2023/04/19 07:35:40;;;;;;;;;21.00;20.75;;;;;13.81;100.00;101787.75;5033096;28;45487;-78
2023/04/19 07:38:06;;;;;;;;;24.00;20.25;;;;;13.84;100.00;101785.13;5035502;28;45622;-78
2023/04/19 07:40:31;;;;;;;;;24.00;21.00;;;;;13.88;100.00;101782.53;5035288;28;45842;-77
2023/04/19 07:42:56;;;;;;;;;24.50;20.50;;;;;13.91;100.00;101787.00;5035710;28;45323;-77
2023/04/19 07:45:22;;;;;;;;;27.50;23.00;;;;;13.96;100.00;101784.41;5035336;28;45472;-77
2023/04/19 07:47:47;;;;;;;;;23.50;22.50;;;;;14.02;100.00;101789.78;5034178;28;45466;-78
2023/04/19 07:50:13;;;;;;;;;21.75;18.00;;;;;14.06;100.00;101780.97;5033189;28;58653;-78
2023/04/19 07:52:38;;;;;;;;;26.00;21.25;;;;;14.11;100.00;101788.16;5038932;28;45400;-78
2023/04/19 07:55:05;;;;;;;;;22.00;19.00;;;;;14.15;100.00;101786.41;5033984;28;45415;-78
2023/04/19 07:57:30;;;;;;;;;27.50;20.00;;;;;14.19;100.00;101785.56;5035859;28;45486;-74
2023/04/19 07:59:58;;;;;;;;;29.50;19.75;;;;;14.26;100.00;101789.19;5033549;28;46041;-75
2023/04/19 08:02:25;;;;;;;;;25.75;19.00;;;;;14.30;100.00;101785.69;5030466;28;45455;-78
2023/04/19 08:04:51;;;;;;;;;28.25;22.50;;;;;14.34;100.00;101783.09;5033411;28;45507;-78
2023/04/19 08:07:16;;;;;;;;;24.50;17.75;;;;;14.38;100.00;101783.97;5035190;28;45380;-77
2023/04/19 08:09:42;;;;;;;;;29.75;22.00;;;;;14.41;100.00;101774.28;4994708;28;46521;-77
2023/04/19 08:12:07;;;;;;;;;20.25;18.75;;;;;14.44;100.00;101789.38;5028849;28;65390;-77
2023/04/19 08:14:32;;;;;;;;;25.00;21.50;;;;;14.48;100.00;101779.69;5029911;28;53267;-80
2023/04/19 08:16:57;;;;;;;;;27.75;24.00;;;;;14.53;100.00;101780.63;5032166;28;60235;-78
2023/04/19 08:19:23;;;;;;;;;21.50;19.50;;;;;14.57;100.00;101786.00;5034213;28;62123;-77
2023/04/19 08:21:48;;;;;;;;;25.25;19.75;;;;;14.60;100.00;101780.72;5033468;28;45351;-76
2023/04/19 08:24:14;;;;;;;;;22.75;22.75;;;;;14.62;100.00;101784.28;5015952;28;45325;-77
2023/04/19 08:26:39;;;;;;;;;24.25;21.25;;;;;14.67;100.00;101779.00;5015694;28;45421;-76
2023/04/19 08:29:05;;;;;;;;;22.25;18.75;;;;;14.72;100.00;101776.41;4996128;28;48419;-79
2023/04/19 08:31:30;;;;;;;;;22.75;19.75;;;;;14.76;100.00;101780.88;4995552;28;60889;-77
2023/04/19 08:33:57;;;;;;;;;21.75;20.75;;;;;14.79;100.00;101770.25;5015967;28;45444;-77
2023/04/19 08:36:22;;;;;;;;;20.00;19.33;;;;;14.86;100.00;101772.06;5014494;28;45390;-79
2023/04/19 08:38:48;;;;;;;;;25.25;21.00;;;;;14.89;100.00;101772.13;5015080;28;45982;-77
2023/04/19 08:41:13;;;;;;;;;25.00;17.67;;;;;14.93;100.00;101773.94;5013758;28;59827;-78
2023/04/19 08:43:42;;;;;;;;;22.33;19.00;;;;;14.96;100.00;101765.94;4993132;28;53063;-79
2023/04/19 08:46:10;;;;;;;;;24.25;21.25;;;;;15.00;100.00;101765.09;4995596;28;57610;-77
2023/04/19 08:48:35;;;;;;;;;22.50;20.00;;;;;15.06;100.00;101766.91;5011400;28;46396;-77
2023/04/19 08:51:01;;;;;;;;;26.50;20.50;;;;;15.11;100.00;101770.50;5013731;28;57955;-76
2023/04/19 08:53:30;;;;;;;;;29.00;25.00;;;;;15.17;100.00;101774.09;4996547;28;45509;-77
2023/04/19 08:55:59;;;;;;;;;22.00;21.00;;;;;15.22;100.00;101774.13;4997422;28;61195;-81
2023/04/19 08:58:25;;;;;;;;;26.75;21.50;;;;;15.27;100.00;101774.16;4996260;28;47092;-79
2023/04/19 09:00:50;;;;;;;;;21.67;19.67;;;;;15.31;100.00;101768.88;5014511;28;45984;-81
2023/04/19 09:03:16;;;;;;;;;26.50;24.50;;;;;15.36;100.00;101776.91;5013380;28;45559;-81
2023/04/19 09:05:41;;;;;;;;;28.25;25.50;;;;;15.42;100.00;101772.50;4995633;28;53976;-79
2023/04/19 09:08:26;;;;;;;;;19.33;19.33;;;;;15.50;100.00;101768.97;5013171;28;66798;-80
2023/04/19 09:10:59;;;;;;;;;33.25;25.00;;;;;15.53;100.00;101761.91;4994146;28;46417;-79
2023/04/19 09:13:26;;;;;;;;;24.00;18.67;;;;;15.60;100.00;101760.16;5011271;28;45551;-79
2023/04/19 09:15:56;;;;;;;;;20.67;17.67;;;;;15.66;100.00;101762.91;5012861;28;45362;-80
2023/04/19 09:18:23;;;;;;;;;23.00;20.00;;;;;15.70;100.00;101760.25;5010212;28;46363;-79
2023/04/19 09:20:49;;;;;;;;;25.67;21.00;;;;;15.75;100.00;101759.38;5011725;28;45522;-78
2023/04/19 09:23:17;;;;;;;;;21.00;18.00;;;;;15.79;100.00;101759.41;4998161;28;45941;-80
2023/04/19 09:25:56;;;;;;;;;18.33;16.67;;;;;15.87;100.00;101755.03;5017691;28;45917;-79
2023/04/19 09:28:22;;;;;;;;;11.67;11.67;;;;;15.93;100.00;101756.81;5010862;28;46553;-78
2023/04/19 09:30:48;;;;;;;;;16.00;16.00;;;;;15.98;100.00;101761.28;4995637;28;45465;-79
2023/04/19 09:33:30;;;;;;;;;21.67;16.67;;;;;16.05;100.00;101759.53;5014570;28;45705;-77
2023/04/19 09:35:55;;;;;;;;;19.33;17.33;;;;;16.12;100.00;101758.66;5014704;28;45586;-77
2023/04/19 09:38:20;;;;;;;;;22.33;19.00;;;;;16.18;100.00;101752.44;5014204;28;70905;-77
2023/04/19 09:40:46;;;;;;;;;26.33;17.33;;;;;16.21;100.00;101747.13;5014320;28;45317;-77
2023/04/19 09:43:11;;;;;;;;;21.00;19.00;;;;;16.28;100.00;101740.03;5014428;28;45600;-78
2023/04/19 09:45:43;;;;;;;;;17.33;14.00;;;;;16.33;100.00;101735.59;5012464;28;62310;-76
2023/04/19 09:48:10;;;;;;;;;20.00;17.67;;;;;16.33;100.00;101733.81;5014110;28;46565;-77
2023/04/19 09:50:36;;;;;;;;;26.00;24.00;;;;;16.42;100.00;101735.63;5013130;28;45512;-77
2023/04/19 09:53:02;;;;;;;;;19.67;19.33;;;;;16.44;100.00;101729.41;4997973;28;45560;-74
2023/04/19 09:55:28;;;;;;;;;14.33;14.00;;;;;16.49;100.00;101729.41;5011941;28;45547;-75
2023/04/19 09:57:54;;;;;;;;;21.67;16.67;;;;;16.53;100.00;101733.84;4991661;28;46754;-75
2023/04/19 10:00:22;;;;;;;;;22.00;20.67;;;;;16.61;100.00;101731.19;5011398;28;45344;-75
2023/04/19 10:02:54;;;;;;;;;19.00;15.67;;;;;16.66;100.00;101722.28;5014030;28;45392;-76
2023/04/19 10:05:21;;;;;;;;;20.00;16.67;;;;;16.72;100.00;101722.34;5013457;28;45495;-76
2023/04/19 10:07:48;;;;;;;;;19.67;17.33;;;;;16.78;100.00;101716.13;5016060;28;46633;-77
2023/04/19 10:10:15;;;;;;;;;19.33;16.33;;;;;16.83;100.00;101719.69;4998598;28;46711;-79
2023/04/19 10:12:41;;;;;;;;;19.00;15.00;;;;;16.92;100.00;101717.00;4998657;28;45556;-79
2023/04/19 10:15:08;;;;;;;;;24.00;18.67;;;;;16.98;100.00;101714.31;4999248;28;53500;-77
2023/04/19 10:17:33;;;;;;;;;16.67;15.67;;;;;17.05;100.00;101719.66;4997309;28;46580;-76
2023/04/19 10:20:06;;;;;;;;;16.67;16.33;;;;;17.11;100.00;101711.66;5013600;28;68431;-77
2023/04/19 10:22:34;;;;;;;;;15.67;14.00;;;;;17.16;100.00;101717.88;4998665;28;45268;-77
2023/04/19 10:25:10;;;;;;;;;19.67;18.33;;;;;17.21;100.00;101724.09;5116595;22;45927;-76
2023/04/19 10:27:35;;;;;;;;;16.33;16.00;;;;;17.25;100.00;101702.69;5012360;28;47506;-77
2023/04/19 10:30:06;;;;;;;;;20.00;17.00;;;;;17.29;100.00;101696.47;5005792;28;45507;-76
2023/04/19 10:32:39;;;;;;;;;17.33;17.33;;;;;17.36;100.00;101712.44;5015916;28;45258;-76
2023/04/19 10:35:23;;;;;;;;;18.67;16.33;;;;;17.41;100.00;101708.88;5016212;28;45534;-76
2023/04/19 10:38:11;;;;;;;;;15.00;13.00;;;;;17.49;100.00;101706.19;5014819;28;46715;-75
2023/04/19 10:40:59;;;;;;;;;21.00;17.33;;;;;17.55;100.00;101696.38;5016691;28;45480;-76
2023/04/19 10:43:30;;;;;;;;;15.33;15.00;;;;;17.61;100.00;101694.56;5013517;28;46964;-76
2023/04/19 10:46:21;;;;;;;;;20.67;15.33;;;;;17.69;100.00;101707.00;4998051;28;45657;-77
2023/04/19 10:48:56;;;;;;;;;20.00;16.33;;;;;17.75;100.00;101692.78;4993193;28;46060;-77
2023/04/19 10:51:26;;;;;;;;;20.67;18.67;;;;;17.85;100.00;101694.50;5016371;28;45599;-77
2023/04/19 10:53:55;;;;;;;;;21.33;17.67;;;;;17.92;100.00;101690.00;5016215;28;45591;-76
2023/04/19 10:56:32;;;;;;;;;22.67;17.00;;;;;17.99;100.00;101689.06;5015831;28;45718;-71
2023/04/19 10:59:01;;;;;;;;;15.00;15.00;;;;;18.08;100.00;101683.66;5008251;28;46347;-72